Oval Lp No.11 — JL6306 — position and weather

sailwx.info

Track history (hours):
 
Tides and Currents Weather Stations Pressure Air Temp Water Temp Dewpoint Dewpoint Depression Visibility Wind Speed Wind Dir Waves Ship Positions

Oval Lp No.11

Last reported at 2014-Aug-19 12:33 UTC. Time now 2014-Aug-20 04:54 UTC.
Position N 34°03' E 134°60'.

Length 67 m; draft 3.6 m.

Type: Ship (hazmat cat A). MMSI: 431500366.

Date/timePositionNaut miles runAvg speedWind from/ knotsBaromVisibWave heightAir tempDewpointWater temp
2014-Aug-19 12:33N 34°03' E 134°60'1111.2
2014-Aug-19 11:33N 34°14' E 134°59'1110.1
2014-Aug-19 10:28N 34°24' E 135°04'1010.8
2014-Aug-19 09:33N 34°30' E 135°13'1110.6
2014-Aug-19 08:33N 34°36' E 135°24'2 1.9
2014-Aug-19 07:22N 34°34' E 135°26'0 0.0
2014-Aug-19 06:22N 34°34' E 135°26'0 0.0
2014-Aug-19 05:28N 34°34' E 135°26'3 3.3
2014-Aug-19 04:33N 34°36' E 135°23'1 1.0
2014-Aug-19 03:33N 34°35' E 135°23'1211.5
2014-Aug-19 02:33N 34°27' E 135°12'1211.9
2014-Aug-19 01:33N 34°19' E 135°02'1110.8
2014-Aug-19 00:33N 34°08' E 135°01'  
2014-Aug-16 06:33N 34°03' E 134°60'1110.8
2014-Aug-16 05:33N 34°14' E 134°58'12 9.3
2014-Aug-16 04:18N 34°25' E 135°04'810.4
2014-Aug-16 03:33N 34°30' E 135°11'1111.0
2014-Aug-16 02:33N 34°36' E 135°22'3 3.3
2014-Aug-16 01:32N 34°34' E 135°26'0 0.0
2014-Aug-16 00:32N 34°34' E 135°26'0 0.0
2014-Aug-15 23:14N 34°34' E 135°26'2 2.3
2014-Aug-15 22:34N 34°36' E 135°25'2 1.6
2014-Aug-15 21:28N 34°36' E 135°23'0 0.0
2014-Aug-15 20:28N 34°36' E 135°23'0 0.0
2014-Aug-15 19:22N 34°36' E 135°23'0 0.0
2014-Aug-15 18:28N 34°36' E 135°23'0 0.0
2014-Aug-15 17:28N 34°36' E 135°23'0 0.1
2014-Aug-15 16:33N 34°36' E 135°23'1110.9
2014-Aug-15 15:33N 34°28' E 135°13'1312.5
2014-Aug-15 14:30N 34°19' E 135°02'1112.1
2014-Aug-15 13:33N 34°08' E 135°01'208 9.0
2014-Aug-14 14:32N 34°46' E 139°08'1312.0
2014-Aug-14 13:28N 34°56' E 139°18'1010.9
2014-Aug-14 12:34N 35°01' E 139°28'1110.9
2014-Aug-14 11:33N 35°06' E 139°40'1110.9
2014-Aug-14 10:34N 35°16' E 139°46'1010.1
2014-Aug-14 09:34N 35°26' E 139°45'1111.4
2014-Aug-14 08:33N 35°32' E 139°57'7 6.5
2014-Aug-14 07:32N 35°33' E 140°05'0 0.0
2014-Aug-14 06:32N 35°33' E 140°05'0 0.0
2014-Aug-14 05:29N 35°33' E 140°05'0 0.0
2014-Aug-14 04:26N 35°33' E 140°05'1 0.6
2014-Aug-14 03:33N 35°33' E 140°05'9 8.4
2014-Aug-14 02:31N 35°29' E 139°55'0 0.0
2014-Aug-14 01:28N 35°29' E 139°55'0 0.1
2014-Aug-14 00:31N 35°29' E 139°55'0 0.0
2014-Aug-13 23:19N 35°29' E 139°55'0 0.0
2014-Aug-13 22:31N 35°29' E 139°55'4 4.6
2014-Aug-13 21:33N 35°27' E 139°50'1110.9
2014-Aug-13 20:33N 35°17' E 139°45'1111.4
2014-Aug-13 19:33N 35°06' E 139°46'1212.0
2014-Aug-13 18:33N 34°54' E 139°46'1211.3
2014-Aug-13 17:29N 34°55' E 140°01'1111.7
2014-Aug-13 16:33N 35°00' E 140°12'1510.3
2014-Aug-13 15:07N 35°09' E 140°27'610.2
2014-Aug-13 14:32N 35°14' E 140°31'1111.4
2014-Aug-13 13:32N 35°23' E 140°39'1312.2
2014-Aug-13 12:27N 35°34' E 140°48'21 9.7
2014-Aug-13 10:20N 35°54' E 140°47'5 6.5
2014-Aug-13 09:33N 35°55' E 140°41'1 1.2
2014-Aug-13 08:30N 35°54' E 140°41'0 0.0
2014-Aug-13 07:30N 35°54' E 140°41'0 0.0
2014-Aug-13 05:24N 35°54' E 140°41'0 0.0
2014-Aug-13 04:30N 35°54' E 140°41'3 1.7
2014-Aug-13 02:31N 35°57' E 140°42'0 0.0
2014-Aug-12 22:13N 35°57' E 140°42'0 0.0
2014-Aug-12 21:22N 35°57' E 140°42'0 0.0
2014-Aug-12 20:28N 35°57' E 140°42'2 1.2
2014-Aug-12 18:32N 35°57' E 140°45'1211.0
2014-Aug-12 17:28N 35°48' E 140°54'910.1
2014-Aug-12 16:33N 35°39' E 140°54'1511.1
2014-Aug-12 15:10N 35°27' E 140°43'2211.9
2014-Aug-12 13:22N 35°09' E 140°27'1113.7
2014-Aug-12 12:33N 35°02' E 140°17'1312.8
2014-Aug-12 11:33N 34°56' E 140°03'1311.3
2014-Aug-12 10:24N 34°51' E 139°48'  
Track history (hours):
 
Tides and Currents Weather Stations Pressure Air Temp Water Temp Dewpoint Dewpoint Depression Visibility Wind Speed Wind Dir Waves Ship Positions

Oval Lp No.11

Last reported at 2014-Aug-19 12:33 UTC. Time now 2014-Aug-20 04:54 UTC.
Position N 34°03' E 134°60'.

Length 67 m; draft 3.6 m.

Type: Ship (hazmat cat A). MMSI: 431500366.

Date/timePositionNaut miles runAvg speedWind from/ knotsBaromVisibWave heightAir tempDewpointWater temp
2014-Aug-19 12:33N 34°03' E 134°60'1111.2
2014-Aug-19 11:33N 34°14' E 134°59'1110.1
2014-Aug-19 10:28N 34°24' E 135°04'1010.8
2014-Aug-19 09:33N 34°30' E 135°13'1110.6
2014-Aug-19 08:33N 34°36' E 135°24'2 1.9
2014-Aug-19 07:22N 34°34' E 135°26'0 0.0
2014-Aug-19 06:22N 34°34' E 135°26'0 0.0
2014-Aug-19 05:28N 34°34' E 135°26'3 3.3
2014-Aug-19 04:33N 34°36' E 135°23'1 1.0
2014-Aug-19 03:33N 34°35' E 135°23'1211.5
2014-Aug-19 02:33N 34°27' E 135°12'1211.9
2014-Aug-19 01:33N 34°19' E 135°02'1110.8
2014-Aug-19 00:33N 34°08' E 135°01'  
2014-Aug-16 06:33N 34°03' E 134°60'1110.8
2014-Aug-16 05:33N 34°14' E 134°58'12 9.3
2014-Aug-16 04:18N 34°25' E 135°04'810.4
2014-Aug-16 03:33N 34°30' E 135°11'1111.0
2014-Aug-16 02:33N 34°36' E 135°22'3 3.3
2014-Aug-16 01:32N 34°34' E 135°26'0 0.0
2014-Aug-16 00:32N 34°34' E 135°26'0 0.0
2014-Aug-15 23:14N 34°34' E 135°26'2 2.3
2014-Aug-15 22:34N 34°36' E 135°25'2 1.6
2014-Aug-15 21:28N 34°36' E 135°23'0 0.0
2014-Aug-15 20:28N 34°36' E 135°23'0 0.0
2014-Aug-15 19:22N 34°36' E 135°23'0 0.0
2014-Aug-15 18:28N 34°36' E 135°23'0 0.0
2014-Aug-15 17:28N 34°36' E 135°23'0 0.1
2014-Aug-15 16:33N 34°36' E 135°23'1110.9
2014-Aug-15 15:33N 34°28' E 135°13'1312.5
2014-Aug-15 14:30N 34°19' E 135°02'1112.1
2014-Aug-15 13:33N 34°08' E 135°01'208 9.0
2014-Aug-14 14:32N 34°46' E 139°08'1312.0
2014-Aug-14 13:28N 34°56' E 139°18'1010.9
2014-Aug-14 12:34N 35°01' E 139°28'1110.9
2014-Aug-14 11:33N 35°06' E 139°40'1110.9
2014-Aug-14 10:34N 35°16' E 139°46'1010.1
2014-Aug-14 09:34N 35°26' E 139°45'1111.4
2014-Aug-14 08:33N 35°32' E 139°57'7 6.5
2014-Aug-14 07:32N 35°33' E 140°05'0 0.0
2014-Aug-14 06:32N 35°33' E 140°05'0 0.0
2014-Aug-14 05:29N 35°33' E 140°05'0 0.0
2014-Aug-14 04:26N 35°33' E 140°05'1 0.6
2014-Aug-14 03:33N 35°33' E 140°05'9 8.4
2014-Aug-14 02:31N 35°29' E 139°55'0 0.0
2014-Aug-14 01:28N 35°29' E 139°55'0 0.1
2014-Aug-14 00:31N 35°29' E 139°55'0 0.0
2014-Aug-13 23:19N 35°29' E 139°55'0 0.0
2014-Aug-13 22:31N 35°29' E 139°55'4 4.6
2014-Aug-13 21:33N 35°27' E 139°50'1110.9
2014-Aug-13 20:33N 35°17' E 139°45'1111.4
2014-Aug-13 19:33N 35°06' E 139°46'1212.0
2014-Aug-13 18:33N 34°54' E 139°46'1211.3
2014-Aug-13 17:29N 34°55' E 140°01'1111.7
2014-Aug-13 16:33N 35°00' E 140°12'1510.3
2014-Aug-13 15:07N 35°09' E 140°27'610.2
2014-Aug-13 14:32N 35°14' E 140°31'1111.4
2014-Aug-13 13:32N 35°23' E 140°39'1312.2
2014-Aug-13 12:27N 35°34' E 140°48'21 9.7
2014-Aug-13 10:20N 35°54' E 140°47'5 6.5
2014-Aug-13 09:33N 35°55' E 140°41'1 1.2
2014-Aug-13 08:30N 35°54' E 140°41'0 0.0
2014-Aug-13 07:30N 35°54' E 140°41'0 0.0
2014-Aug-13 05:24N 35°54' E 140°41'0 0.0
2014-Aug-13 04:30N 35°54' E 140°41'3 1.7
2014-Aug-13 02:31N 35°57' E 140°42'0 0.0
2014-Aug-12 22:13N 35°57' E 140°42'0 0.0
2014-Aug-12 21:22N 35°57' E 140°42'0 0.0
2014-Aug-12 20:28N 35°57' E 140°42'2 1.2
2014-Aug-12 18:32N 35°57' E 140°45'1211.0
2014-Aug-12 17:28N 35°48' E 140°54'910.1
2014-Aug-12 16:33N 35°39' E 140°54'1511.1
2014-Aug-12 15:10N 35°27' E 140°43'2211.9
2014-Aug-12 13:22N 35°09' E 140°27'1113.7
2014-Aug-12 12:33N 35°02' E 140°17'1312.8
2014-Aug-12 11:33N 34°56' E 140°03'1311.3
2014-Aug-12 10:24N 34°51' E 139°48'  

Dump ship's entire track history